LNI171 WILL-WIII
Flight info
| Callsign | LNI171 |
|---|---|
| Flight time | 0h 24m |
| Altitude | 15000 |
| Route | CKG DCT |
| Aircraft | B738/M-SDE2E3FGHIRWXY/LB1 |
Departure
| Time | 2026-04-24 09:23 |
|---|---|
| Airport | Radin Inten II International Airport (WILL) |
Arrival
| Time | 2026-04-24 09:48 |
|---|---|
| Airport | Soekarno-Hatta International Airport (WIII) |
| Time | Latitude | Longitude | Altitude | Speed | Heading |
|---|---|---|---|---|---|
| 2026-04-24 08:59 | -5.24451 | 105.17844 | 275 ft | 0 kts | 230° |
| 2026-04-24 09:14 | -5.24450 | 105.17846 | 275 ft | 1 kts | 230° |
| 2026-04-24 09:15 | -5.24441 | 105.17857 | 274 ft | 2 kts | 230° |
| 2026-04-24 09:15 | -5.24432 | 105.17870 | 274 ft | 2 kts | 250° |
| 2026-04-24 09:15 | -5.24428 | 105.17886 | 274 ft | 2 kts | 269° |
| 2026-04-24 09:15 | -5.24431 | 105.17902 | 274 ft | 2 kts | 290° |
| 2026-04-24 09:16 | -5.24438 | 105.17915 | 273 ft | 2 kts | 309° |
| 2026-04-24 09:16 | -5.24449 | 105.17925 | 273 ft | 2 kts | 323° |
| 2026-04-24 09:16 | -5.24461 | 105.17935 | 273 ft | 2 kts | 318° |
| 2026-04-24 09:16 | -5.24465 | 105.17939 | 273 ft | 0 kts | 319° |
| 2026-04-24 09:18 | -5.24458 | 105.17934 | 273 ft | 2 kts | 319° |
| 2026-04-24 09:19 | -5.24439 | 105.17917 | 273 ft | 4 kts | 320° |
| 2026-04-24 09:19 | -5.24413 | 105.17895 | 274 ft | 4 kts | 320° |
| 2026-04-24 09:19 | -5.24388 | 105.17873 | 274 ft | 6 kts | 320° |
| 2026-04-24 09:19 | -5.24344 | 105.17837 | 275 ft | 9 kts | 320° |
| 2026-04-24 09:20 | -5.24283 | 105.17785 | 276 ft | 12 kts | 317° |
| 2026-04-24 09:20 | -5.24214 | 105.17726 | 277 ft | 10 kts | 320° |
| 2026-04-24 09:20 | -5.24164 | 105.17712 | 277 ft | 7 kts | 25° |
| 2026-04-24 09:20 | -5.24116 | 105.17759 | 277 ft | 11 kts | 34° |
| 2026-04-24 09:21 | -5.24057 | 105.17744 | 277 ft | 7 kts | 319° |
| 2026-04-24 09:21 | -5.24012 | 105.17705 | 277 ft | 9 kts | 319° |
| 2026-04-24 09:21 | -5.23951 | 105.17653 | 277 ft | 12 kts | 320° |
| 2026-04-24 09:21 | -5.23868 | 105.17584 | 276 ft | 16 kts | 318° |
| 2026-04-24 09:22 | -5.23796 | 105.17506 | 275 ft | 11 kts | 310° |
| 2026-04-24 09:22 | -5.23774 | 105.17496 | 274 ft | 2 kts | 52° |
| 2026-04-24 09:22 | -5.23787 | 105.17513 | 274 ft | 5 kts | 142° |
| 2026-04-24 09:22 | -5.23909 | 105.17615 | 277 ft | 53 kts | 139° |
| 2026-04-24 09:23 | -5.24342 | 105.17988 | 275 ft | 114 kts | 138° |
| 2026-04-24 09:23 | -5.25115 | 105.18639 | 269 ft | 166 kts | 139° |
| 2026-04-24 09:23 | -5.26079 | 105.19425 | 651 ft | 180 kts | 138° |
| 2026-04-24 09:23 | -5.27077 | 105.20238 | 1231 ft | 188 kts | 140° |
| 2026-04-24 09:24 | -5.28157 | 105.20995 | 1794 ft | 195 kts | 142° |
| 2026-04-24 09:24 | -5.29350 | 105.21840 | 1951 ft | 219 kts | 142° |
| 2026-04-24 09:24 | -5.30667 | 105.22784 | 2275 ft | 237 kts | 142° |
| 2026-04-24 09:24 | -5.32065 | 105.23788 | 2647 ft | 255 kts | 142° |
| 2026-04-24 09:25 | -5.33558 | 105.24861 | 3186 ft | 265 kts | 142° |
| 2026-04-24 09:25 | -5.35090 | 105.25962 | 3817 ft | 271 kts | 142° |
| 2026-04-24 09:25 | -5.36658 | 105.27090 | 4499 ft | 275 kts | 142° |
| 2026-04-24 09:25 | -5.38209 | 105.28205 | 5177 ft | 278 kts | 143° |
| 2026-04-24 09:26 | -5.39675 | 105.29260 | 5815 ft | 280 kts | 143° |
| 2026-04-24 09:26 | -5.41288 | 105.30420 | 6511 ft | 283 kts | 143° |
| 2026-04-24 09:26 | -5.42892 | 105.31574 | 7195 ft | 286 kts | 143° |
| 2026-04-24 09:26 | -5.44528 | 105.32751 | 7885 ft | 288 kts | 143° |
| 2026-04-24 09:27 | -5.46194 | 105.33950 | 8581 ft | 291 kts | 143° |
| 2026-04-24 09:27 | -5.47860 | 105.35149 | 9271 ft | 294 kts | 143° |
| 2026-04-24 09:27 | -5.49482 | 105.36316 | 9939 ft | 297 kts | 143° |
| 2026-04-24 09:27 | -5.51204 | 105.37556 | 10336 ft | 312 kts | 144° |
| 2026-04-24 09:28 | -5.53058 | 105.38891 | 10416 ft | 336 kts | 144° |
| 2026-04-24 09:28 | -5.55036 | 105.40315 | 10575 ft | 355 kts | 144° |
| 2026-04-24 09:28 | -5.57119 | 105.41814 | 10828 ft | 369 kts | 144° |
| 2026-04-24 09:28 | -5.59208 | 105.43318 | 10942 ft | 380 kts | 144° |
| 2026-04-24 09:29 | -5.61348 | 105.44859 | 10975 ft | 374 kts | 144° |
| 2026-04-24 09:29 | -5.63446 | 105.46369 | 10968 ft | 374 kts | 144° |
| 2026-04-24 09:29 | -5.65538 | 105.47875 | 10964 ft | 374 kts | 144° |
| 2026-04-24 09:29 | -5.67640 | 105.49390 | 10965 ft | 374 kts | 144° |
| 2026-04-24 09:30 | -5.69799 | 105.50944 | 10875 ft | 380 kts | 144° |
| 2026-04-24 09:30 | -5.71982 | 105.52518 | 11218 ft | 379 kts | 144° |
| 2026-04-24 09:30 | -5.74123 | 105.54060 | 11921 ft | 378 kts | 144° |
| 2026-04-24 09:30 | -5.76285 | 105.55618 | 12401 ft | 385 kts | 144° |
| 2026-04-24 09:31 | -5.78468 | 105.57190 | 13116 ft | 384 kts | 144° |
| 2026-04-24 09:31 | -5.80662 | 105.58771 | 13669 ft | 388 kts | 144° |
| 2026-04-24 09:31 | -5.82873 | 105.60364 | 14258 ft | 391 kts | 144° |
| 2026-04-24 09:31 | -5.85109 | 105.61975 | 14735 ft | 394 kts | 144° |
| 2026-04-24 09:32 | -5.87401 | 105.63627 | 14768 ft | 397 kts | 144° |
| 2026-04-24 09:32 | -5.89642 | 105.65241 | 14770 ft | 395 kts | 144° |
| 2026-04-24 09:32 | -5.91901 | 105.66869 | 14779 ft | 394 kts | 144° |
| 2026-04-24 09:32 | -5.94135 | 105.68478 | 14778 ft | 394 kts | 144° |
| 2026-04-24 09:33 | -5.96367 | 105.70087 | 14776 ft | 394 kts | 144° |
| 2026-04-24 09:33 | -5.98616 | 105.71709 | 14776 ft | 394 kts | 144° |
| 2026-04-24 09:33 | -6.00871 | 105.73334 | 14777 ft | 394 kts | 144° |
| 2026-04-24 09:33 | -6.03127 | 105.74960 | 14773 ft | 391 kts | 144° |
| 2026-04-24 09:34 | -6.05308 | 105.76533 | 14779 ft | 376 kts | 144° |
| 2026-04-24 09:34 | -6.07434 | 105.78065 | 14617 ft | 367 kts | 144° |
| 2026-04-24 09:34 | -6.09488 | 105.79547 | 14097 ft | 365 kts | 144° |
| 2026-04-24 09:34 | -6.11565 | 105.81046 | 13493 ft | 368 kts | 144° |
| 2026-04-24 09:35 | -6.13629 | 105.82535 | 12872 ft | 366 kts | 144° |
| 2026-04-24 09:35 | -6.15659 | 105.84012 | 12258 ft | 363 kts | 141° |
| 2026-04-24 09:35 | -6.17422 | 105.85783 | 11641 ft | 361 kts | 125° |
| 2026-04-24 09:35 | -6.18530 | 105.88019 | 11026 ft | 357 kts | 105° |
| 2026-04-24 09:36 | -6.18890 | 105.90444 | 10599 ft | 349 kts | 92° |
| 2026-04-24 09:36 | -6.18968 | 105.92851 | 10341 ft | 336 kts | 92° |
| 2026-04-24 09:36 | -6.19069 | 105.95142 | 10206 ft | 322 kts | 92° |
| 2026-04-24 09:36 | -6.19167 | 105.97343 | 10058 ft | 309 kts | 92° |
| 2026-04-24 09:37 | -6.19251 | 105.99470 | 9823 ft | 300 kts | 92° |
| 2026-04-24 09:37 | -6.19330 | 106.01541 | 9456 ft | 297 kts | 92° |
| 2026-04-24 09:37 | -6.19408 | 106.03610 | 9079 ft | 294 kts | 91° |
| 2026-04-24 09:37 | -6.19483 | 106.05638 | 8710 ft | 291 kts | 91° |
| 2026-04-24 09:38 | -6.19557 | 106.07668 | 8341 ft | 288 kts | 91° |
| 2026-04-24 09:38 | -6.19625 | 106.09545 | 8001 ft | 285 kts | 91° |
| 2026-04-24 09:38 | -6.19699 | 106.11591 | 7662 ft | 281 kts | 91° |
| 2026-04-24 09:38 | -6.19769 | 106.13520 | 7450 ft | 273 kts | 91° |
| 2026-04-24 09:39 | -6.19838 | 106.15432 | 7138 ft | 269 kts | 91° |
| 2026-04-24 09:39 | -6.19907 | 106.17330 | 6800 ft | 267 kts | 91° |
| 2026-04-24 09:39 | -6.19969 | 106.19064 | 6485 ft | 265 kts | 91° |
| 2026-04-24 09:39 | -6.20037 | 106.20940 | 6143 ft | 263 kts | 91° |
| 2026-04-24 09:40 | -6.20103 | 106.22785 | 5806 ft | 263 kts | 91° |
| 2026-04-24 09:40 | -6.20170 | 106.24655 | 5517 ft | 259 kts | 91° |
| 2026-04-24 09:40 | -6.20234 | 106.26429 | 5415 ft | 248 kts | 91° |
| 2026-04-24 09:40 | -6.20295 | 106.28117 | 5332 ft | 236 kts | 91° |
| 2026-04-24 09:41 | -6.20353 | 106.29741 | 5251 ft | 224 kts | 91° |
| 2026-04-24 09:41 | -6.20408 | 106.31301 | 5183 ft | 229 kts | 91° |
| 2026-04-24 09:41 | -6.20466 | 106.32936 | 5089 ft | 232 kts | 91° |
| 2026-04-24 09:41 | -6.20729 | 106.34538 | 4982 ft | 234 kts | 114° |
| 2026-04-24 09:42 | -6.21595 | 106.35927 | 5009 ft | 235 kts | 122° |
| 2026-04-24 09:42 | -6.22453 | 106.37288 | 4999 ft | 232 kts | 120° |
| 2026-04-24 09:42 | -6.23307 | 106.38705 | 4987 ft | 234 kts | 115° |
| 2026-04-24 09:42 | -6.23801 | 106.40269 | 4937 ft | 234 kts | 99° |
| 2026-04-24 09:43 | -6.23796 | 106.41908 | 4779 ft | 231 kts | 73° |
| 2026-04-24 09:43 | -6.23048 | 106.43344 | 4610 ft | 230 kts | 55° |
| 2026-04-24 09:43 | -6.22227 | 106.44743 | 4260 ft | 233 kts | 64° |
| 2026-04-24 09:43 | -6.21521 | 106.46214 | 3940 ft | 232 kts | 65° |
| 2026-04-24 09:44 | -6.20899 | 106.47708 | 3628 ft | 228 kts | 68° |
| 2026-04-24 09:44 | -6.20292 | 106.49219 | 3244 ft | 222 kts | 67° |
| 2026-04-24 09:44 | -6.19728 | 106.50636 | 2968 ft | 211 kts | 68° |
| 2026-04-24 09:44 | -6.19200 | 106.51960 | 2713 ft | 199 kts | 67° |
| 2026-04-24 09:45 | -6.18693 | 106.53231 | 2365 ft | 187 kts | 67° |
| 2026-04-24 09:45 | -6.18235 | 106.54383 | 2152 ft | 168 kts | 67° |
| 2026-04-24 09:45 | -6.17807 | 106.55456 | 1959 ft | 160 kts | 67° |
| 2026-04-24 09:45 | -6.17417 | 106.56432 | 1751 ft | 157 kts | 67° |
| 2026-04-24 09:46 | -6.17030 | 106.57406 | 1509 ft | 154 kts | 67° |
| 2026-04-24 09:46 | -6.16646 | 106.58368 | 1333 ft | 154 kts | 67° |
| 2026-04-24 09:46 | -6.16261 | 106.59335 | 1124 ft | 153 kts | 67° |
| 2026-04-24 09:46 | -6.15919 | 106.60192 | 946 ft | 153 kts | 67° |
| 2026-04-24 09:47 | -6.15776 | 106.60551 | 872 ft | 152 kts | 67° |
| 2026-04-24 09:47 | -6.15372 | 106.61546 | 673 ft | 151 kts | 66° |
| 2026-04-24 09:47 | -6.14977 | 106.62537 | 489 ft | 151 kts | 68° |
| 2026-04-24 09:47 | -6.14588 | 106.63522 | 297 ft | 150 kts | 67° |
| 2026-04-24 09:48 | -6.14195 | 106.64500 | 99 ft | 150 kts | 67° |
| 2026-04-24 09:48 | -6.13839 | 106.65393 | 43 ft | 115 kts | 68° |
| 2026-04-24 09:48 | -6.13632 | 106.65919 | 43 ft | 49 kts | 68° |
| 2026-04-24 09:48 | -6.13530 | 106.66150 | 43 ft | 25 kts | 52° |
| 2026-04-24 09:49 | -6.13439 | 106.66252 | 43 ft | 16 kts | 41° |
| 2026-04-24 09:49 | -6.13361 | 106.66309 | 43 ft | 9 kts | 19° |
| 2026-04-24 09:49 | -6.13304 | 106.66298 | 43 ft | 7 kts | 311° |
| 2026-04-24 09:49 | -6.13306 | 106.66255 | 43 ft | 5 kts | 249° |
| 2026-04-24 09:50 | -6.13327 | 106.66200 | 43 ft | 10 kts | 249° |
| 2026-04-24 09:50 | -6.13362 | 106.66108 | 43 ft | 16 kts | 249° |
| 2026-04-24 09:50 | -6.13411 | 106.65983 | 43 ft | 21 kts | 248° |
| 2026-04-24 09:50 | -6.13429 | 106.65886 | 43 ft | 9 kts | 306° |
| 2026-04-24 09:51 | -6.13379 | 106.65850 | 43 ft | 7 kts | 330° |
| 2026-04-24 09:51 | -6.13335 | 106.65828 | 43 ft | 6 kts | 347° |
| 2026-04-24 09:51 | -6.13282 | 106.65828 | 43 ft | 5 kts | 2° |
| 2026-04-24 09:51 | -6.13265 | 106.65814 | 43 ft | 4 kts | 279° |
| 2026-04-24 09:52 | -6.13260 | 106.65784 | 43 ft | 3 kts | 278° |
| 2026-04-24 09:52 | -6.13257 | 106.65765 | 43 ft | 1 kts | 278° |
| 2026-04-24 09:52 | -6.13257 | 106.65762 | 43 ft | 0 kts | 278° |